createdAt,value
2022-09-03T00:00:09.320Z,63.86
2022-09-03T00:05:23.698Z,64.47
2022-09-03T00:10:37.017Z,64.34
2022-09-03T00:15:44.683Z,64.71
2022-09-03T00:20:58.077Z,65.17
2022-09-03T00:26:26.110Z,65.23
2022-09-03T00:31:39.387Z,65.43
2022-09-03T00:36:48.138Z,65.56
2022-09-03T00:42:12.200Z,65.46
2022-09-03T00:47:26.468Z,65.39
2022-09-03T00:52:47.873Z,65.01
2022-09-03T00:58:15.350Z,64.86
2022-09-03T01:03:30.075Z,64.38
2022-09-03T01:08:58.029Z,63.70
2022-09-03T01:14:19.270Z,63.55
2022-09-03T01:19:51.662Z,63.81
2022-09-03T01:25:14.177Z,63.82
2022-09-03T01:30:24.448Z,63.73
2022-09-03T01:35:40.735Z,63.97
2022-09-03T01:40:54.339Z,64.03
2022-09-03T01:46:07.317Z,63.96
2022-09-03T01:51:21.920Z,64.04
2022-09-03T01:56:40.694Z,63.96
2022-09-03T02:01:55.014Z,64.22
2022-09-03T02:07:05.220Z,63.79
2022-09-03T02:12:19.097Z,63.32
2022-09-03T02:17:27.111Z,63.28
2022-09-03T02:22:35.220Z,63.31
2022-09-03T02:27:43.461Z,63.24
2022-09-03T02:32:50.988Z,63.21
2022-09-03T02:37:58.360Z,63.16
2022-09-03T02:43:08.818Z,63.31
2022-09-03T02:48:19.791Z,63.18
2022-09-03T02:53:28.760Z,63.05
2022-09-03T02:58:36.225Z,63.02
2022-09-03T03:03:44.563Z,63.22
2022-09-03T03:08:52.663Z,63.16
2022-09-03T03:14:00.297Z,63.09
2022-09-03T03:19:07.997Z,62.91
2022-09-03T03:24:15.758Z,62.85
2022-09-03T03:29:25.792Z,62.99
2022-09-03T03:34:33.694Z,63.20
2022-09-03T03:39:41.096Z,63.42
2022-09-03T03:44:48.522Z,63.54
2022-09-03T03:49:55.708Z,63.62
2022-09-03T03:55:03.289Z,63.33
2022-09-03T04:00:12.496Z,63.16
2022-09-03T04:05:23.212Z,63.24
2022-09-03T04:10:31.646Z,63.27
2022-09-03T04:15:38.898Z,63.66
2022-09-03T04:20:46.208Z,63.77
2022-09-03T04:25:57.646Z,64.14
2022-09-03T04:31:07.605Z,64.34
2022-09-03T04:36:17.303Z,64.58
2022-09-03T04:41:27.312Z,65.03
2022-09-03T04:46:35.040Z,65.10
2022-09-03T04:51:42.607Z,65.48
2022-09-03T04:56:50.221Z,65.60
2022-09-03T05:01:57.992Z,65.79
2022-09-03T05:07:05.905Z,65.57
2022-09-03T05:12:13.714Z,65.77
2022-09-03T05:17:21.363Z,66.00
2022-09-03T05:22:29.316Z,66.19
2022-09-03T05:27:37.179Z,66.63
2022-09-03T05:32:44.740Z,66.61
2022-09-03T05:37:52.322Z,66.46
2022-09-03T05:43:07.857Z,66.78
2022-09-03T05:48:15.694Z,66.69
2022-09-03T05:53:23.850Z,66.42
2022-09-03T05:58:34.312Z,66.41
2022-09-03T06:03:41.771Z,66.21
2022-09-03T06:08:52.018Z,66.08
2022-09-03T06:14:01.776Z,66.28
2022-09-03T06:19:10.038Z,66.02
2022-09-03T06:24:19.375Z,65.85
2022-09-03T06:29:27.471Z,65.70
2022-09-03T06:34:35.220Z,65.55
2022-09-03T06:39:42.519Z,65.36
2022-09-03T06:44:50.066Z,65.17
2022-09-03T06:49:57.311Z,65.08
2022-09-03T06:55:04.792Z,64.91
2022-09-03T07:00:14.612Z,64.51
2022-09-03T07:05:22.159Z,64.07
2022-09-03T07:10:29.324Z,63.86
2022-09-03T07:15:37.101Z,63.37
2022-09-03T07:20:44.497Z,62.80
2022-09-03T07:25:58.782Z,62.62
2022-09-03T07:31:09.347Z,62.30
2022-09-03T07:36:18.953Z,62.03
2022-09-03T07:41:28.691Z,61.71
2022-09-03T07:46:38.452Z,61.15
2022-09-03T07:51:46.866Z,60.87
2022-09-03T07:56:54.197Z,60.39
2022-09-03T08:02:01.597Z,60.09
2022-09-03T08:07:09.032Z,59.68
2022-09-03T08:12:16.195Z,59.33
2022-09-03T08:17:23.516Z,59.27
2022-09-03T08:22:31.499Z,59.04
2022-09-03T08:27:38.702Z,58.32
2022-09-03T08:32:46.105Z,57.92
2022-09-03T08:37:56.769Z,57.50
2022-09-03T08:43:19.363Z,57.07
2022-09-03T08:48:29.699Z,56.43
2022-09-03T08:53:43.904Z,56.02
2022-09-03T08:58:51.197Z,55.64
2022-09-03T09:04:10.299Z,55.27
2022-09-03T09:09:32.202Z,55.04
2022-09-03T09:14:47.205Z,54.68
2022-09-03T09:20:06.557Z,54.39
2022-09-03T09:25:18.519Z,53.90
2022-09-03T09:30:23.905Z,53.14
2022-09-03T09:35:31.961Z,52.63
2022-09-03T09:40:44.846Z,52.25
2022-09-03T09:45:54.601Z,52.42
2022-09-03T09:51:12.184Z,52.39
2022-09-03T09:56:27.065Z,51.47
2022-09-03T10:01:34.329Z,51.10
2022-09-03T10:06:57.634Z,50.90
2022-09-03T10:12:16.031Z,50.55
2022-09-03T10:17:37.313Z,50.52
2022-09-03T10:22:56.237Z,49.82
2022-09-03T10:28:04.689Z,50.29
2022-09-03T10:33:20.604Z,50.30
2022-09-03T10:38:34.292Z,49.84
2022-09-03T10:44:02.063Z,49.74
2022-09-03T10:49:42.351Z,49.79
2022-09-03T10:55:10.664Z,49.18
2022-09-03T11:00:20.625Z,48.87
2022-09-03T11:05:37.554Z,48.66
2022-09-03T11:10:50.795Z,48.10
2022-09-03T11:16:01.512Z,47.95
2022-09-03T11:21:13.230Z,47.70
2022-09-03T11:26:23.350Z,47.51
2022-09-03T11:31:48.545Z,47.04
2022-09-03T11:37:06.354Z,47.42
2022-09-03T11:42:26.381Z,46.98
2022-09-03T11:47:44.247Z,46.32
2022-09-03T11:52:53.869Z,46.05
2022-09-03T11:58:12.347Z,45.77
2022-09-03T12:03:20.090Z,45.33
2022-09-03T12:09:02.474Z,45.29
2022-09-03T12:14:15.570Z,44.83
2022-09-03T12:19:31.209Z,44.67
2022-09-03T12:24:38.614Z,44.36
2022-09-03T12:29:58.630Z,44.33
2022-09-03T12:46:21.718Z,43.60
2022-09-03T12:51:56.941Z,43.55
2022-09-03T12:57:06.388Z,43.39
2022-09-03T13:02:23.630Z,43.41
2022-09-03T13:07:37.698Z,43.61
2022-09-03T13:12:53.337Z,43.36
2022-09-03T13:18:27.103Z,43.18
2022-09-03T13:23:53.541Z,43.02
2022-09-03T13:29:17.408Z,43.15
2022-09-03T13:34:30.058Z,43.32
2022-09-03T13:39:45.288Z,43.32
2022-09-03T13:44:59.835Z,43.64
2022-09-03T13:50:27.613Z,43.75
2022-09-03T13:55:45.468Z,43.36
2022-09-03T14:00:56.439Z,42.89
2022-09-03T14:06:11.331Z,42.88
2022-09-03T14:11:31.074Z,42.85
2022-09-03T14:16:44.872Z,42.78
2022-09-03T14:22:00.335Z,42.55
2022-09-03T14:27:08.266Z,42.48
2022-09-03T14:32:29.286Z,42.63
2022-09-03T14:38:04.323Z,42.37
2022-09-03T14:43:28.474Z,42.31
2022-09-03T14:49:02.856Z,42.13
2022-09-03T14:54:30.296Z,42.03
2022-09-03T14:59:56.271Z,42.05
2022-09-03T15:05:16.702Z,41.96
2022-09-03T15:10:36.839Z,41.82
2022-09-03T15:16:13.810Z,42.08
2022-09-03T15:21:42.875Z,41.95
2022-09-03T15:27:03.796Z,41.79
2022-09-03T15:32:22.590Z,41.77
2022-09-03T15:37:35.054Z,41.90
2022-09-03T15:42:45.252Z,42.17
2022-09-03T15:47:58.548Z,42.22
2022-09-03T15:53:17.034Z,42.18
2022-09-03T15:58:31.275Z,42.23
2022-09-03T16:03:47.125Z,42.06
2022-09-03T16:09:01.763Z,42.21
2022-09-03T16:14:17.086Z,42.38
2022-09-03T16:19:30.715Z,42.42
2022-09-03T16:24:48.967Z,42.79
2022-09-03T16:30:03.811Z,42.80
2022-09-03T16:35:24.054Z,43.00
2022-09-03T16:40:41.257Z,42.92
2022-09-03T16:46:01.067Z,42.99
2022-09-03T16:51:16.540Z,43.17
2022-09-03T16:56:40.380Z,43.24
2022-09-03T17:02:13.848Z,43.37
2022-09-03T17:07:49.026Z,43.59
2022-09-03T17:13:07.234Z,43.90
2022-09-03T17:18:39.817Z,44.12
2022-09-03T17:24:19.283Z,44.19
2022-09-03T17:29:42.132Z,44.20
2022-09-03T17:35:02.043Z,44.87
2022-09-03T17:40:23.957Z,45.15
2022-09-03T17:45:47.929Z,45.22
2022-09-03T17:51:02.701Z,45.46
2022-09-03T17:56:13.798Z,45.66
2022-09-03T18:01:29.340Z,45.99
2022-09-03T18:06:52.585Z,46.18
2022-09-03T18:12:08.261Z,46.52
2022-09-03T18:17:21.423Z,47.02
2022-09-03T18:22:52.819Z,47.43
2022-09-03T18:28:23.037Z,47.81
2022-09-03T18:33:50.821Z,48.07
2022-09-03T18:39:29.499Z,48.24
2022-09-03T18:45:20.706Z,48.63
2022-09-03T18:50:54.316Z,48.77
2022-09-03T18:56:28.576Z,49.20
2022-09-03T19:01:57.197Z,49.50
2022-09-03T19:07:28.545Z,49.73
2022-09-03T19:13:07.177Z,50.10
2022-09-03T19:18:47.970Z,50.34
2022-09-03T19:24:21.409Z,50.44
2022-09-03T19:30:02.786Z,50.68
2022-09-03T19:35:36.401Z,50.87
2022-09-03T19:41:21.812Z,50.92
2022-09-03T19:46:56.672Z,51.15
2022-09-03T19:52:29.360Z,51.18
2022-09-03T19:57:53.980Z,51.46
2022-09-03T20:03:21.972Z,51.29
2022-09-03T20:08:49.166Z,51.49
2022-09-03T20:14:17.639Z,51.56
2022-09-03T20:19:34.494Z,51.61
2022-09-03T20:24:56.825Z,51.85
2022-09-03T20:30:09.736Z,52.02
2022-09-03T20:35:24.228Z,51.86
2022-09-03T20:40:43.634Z,51.93
2022-09-03T20:46:09.579Z,52.17
2022-09-03T20:51:23.350Z,52.35
2022-09-03T20:56:35.513Z,52.41
2022-09-03T21:01:57.867Z,52.47
2022-09-03T21:07:18.712Z,52.53
2022-09-03T21:12:38.709Z,52.54
2022-09-03T21:18:00.465Z,52.48
2022-09-03T21:23:21.289Z,52.62
2022-09-03T21:28:38.944Z,53.06
2022-09-03T21:33:50.659Z,53.00
2022-09-03T21:39:07.693Z,52.94
2022-09-03T21:44:21.235Z,52.89
2022-09-03T21:49:33.670Z,53.22
2022-09-03T21:54:41.233Z,53.18
2022-09-03T22:00:20.442Z,53.42
2022-09-03T22:05:31.350Z,53.19
2022-09-03T22:10:59.240Z,53.34
2022-09-03T22:16:15.146Z,53.13
2022-09-03T22:21:29.385Z,53.55
2022-09-03T22:26:46.838Z,53.66
2022-09-03T22:32:00.680Z,53.62
2022-09-03T22:37:15.978Z,54.10
2022-09-03T22:42:47.532Z,54.06
2022-09-03T22:48:08.539Z,54.29
2022-09-03T22:53:28.058Z,54.42
2022-09-03T22:58:39.212Z,54.39
2022-09-03T23:03:55.729Z,54.37
2022-09-03T23:09:08.133Z,54.31
2022-09-03T23:14:18.719Z,54.34
2022-09-03T23:19:37.046Z,54.52
2022-09-03T23:24:50.100Z,54.63
2022-09-03T23:29:58.973Z,54.59
2022-09-03T23:35:12.440Z,54.63
2022-09-03T23:40:41.680Z,54.35
2022-09-03T23:46:01.107Z,54.58
2022-09-03T23:51:17.638Z,54.46
2022-09-03T23:56:49.110Z,54.63
